Time;durP1;ratioP1;P1;durP2;ratioP2;P2;SDS_P1;SDS_P2;PMS_P1;PMS_P2;Temp;Humidity;BMP_temperature;BMP_pressure;BME280_temperature;BME280_humidity;BME280_pressure;Samples;Min_cycle;Max_cycle;Signal;HPM_P1;HPM_P2
2021/05/29 00:02:18;;;;;;;4.77;3.40;;;;;;;10.41;100.00;96750.75;5050153;28;20224;-75
2021/05/29 00:04:44;;;;;;;10.83;3.50;;;;;;;10.45;100.00;96745.03;5049790;28;21130;-75
2021/05/29 00:07:11;;;;;;;5.27;3.33;;;;;;;10.40;100.00;96738.59;5049994;28;20259;-75
2021/05/29 00:09:38;;;;;;;4.77;3.03;;;;;;;10.39;100.00;96739.59;5050049;28;20205;-75
2021/05/29 00:12:07;;;;;;;5.30;3.17;;;;;;;10.29;100.00;96733.63;5050054;28;20229;-75
2021/05/29 00:14:35;;;;;;;5.70;3.07;;;;;;;10.44;100.00;96737.28;5049773;28;20221;-75
2021/05/29 00:17:01;;;;;;;4.17;2.77;;;;;;;10.40;100.00;96735.97;5049620;28;20701;-75
2021/05/29 00:19:27;;;;;;;4.10;3.00;;;;;;;10.42;100.00;96736.59;5049659;28;20201;-75
2021/05/29 00:21:53;;;;;;;5.60;3.10;;;;;;;10.28;100.00;96733.81;5049586;28;20710;-75
2021/05/29 00:24:19;;;;;;;8.63;3.63;;;;;;;10.31;100.00;96726.41;5049922;28;20212;-75
2021/05/29 00:26:45;;;;;;;5.93;3.77;;;;;;;10.19;100.00;96726.88;5049304;28;20213;-75
2021/05/29 00:29:11;;;;;;;8.17;3.60;;;;;;;10.27;100.00;96725.06;5049528;28;20612;-75
2021/05/29 00:31:38;;;;;;;4.30;2.87;;;;;;;10.27;100.00;96729.53;5049441;28;20201;-75
2021/05/29 00:34:04;;;;;;;3.67;3.07;;;;;;;10.32;100.00;96730.66;5048975;28;20221;-75
2021/05/29 00:36:30;;;;;;;7.67;3.60;;;;;;;10.26;100.00;96723.44;5049219;28;20291;-75
2021/05/29 00:38:56;;;;;;;7.03;3.80;;;;;;;10.10;100.00;96728.66;5049386;28;20197;-75
2021/05/29 00:41:22;;;;;;;5.03;3.33;;;;;;;10.23;100.00;96718.47;5049509;28;20212;-74
2021/05/29 00:43:48;;;;;;;6.57;3.40;;;;;;;10.35;100.00;96720.63;5049259;28;20213;-74
2021/05/29 00:46:14;;;;;;;5.50;3.50;;;;;;;10.38;100.00;96711.59;5048956;28;20205;-75
2021/05/29 00:48:41;;;;;;;6.43;3.53;;;;;;;10.38;100.00;96709.75;5049189;28;20211;-74
2021/05/29 00:51:08;;;;;;;5.83;3.67;;;;;;;10.27;100.00;96714.53;5049441;28;20201;-74
2021/05/29 00:53:36;;;;;;;7.80;3.60;;;;;;;10.25;100.00;96711.25;5049131;28;20237;-74
2021/05/29 00:56:03;;;;;;;7.23;4.03;;;;;;;10.41;100.00;96705.97;5048665;28;20201;-74
2021/05/29 00:58:29;;;;;;;8.83;3.80;;;;;;;10.44;100.00;96706.47;5049110;28;20212;-75
2021/05/29 01:00:56;;;;;;;5.53;3.43;;;;;;;10.40;100.00;96707.00;5048922;28;20225;-75
2021/05/29 01:03:23;;;;;;;5.67;3.53;;;;;;;10.36;100.00;96701.22;5048852;28;20224;-75
2021/05/29 01:05:50;;;;;;;6.57;3.90;;;;;;;10.37;100.00;96699.41;5048695;28;20201;-75
2021/05/29 01:08:16;;;;;;;5.37;3.80;;;;;;;10.32;100.00;96701.69;5048755;28;20577;-75
2021/05/29 01:10:43;;;;;;;6.07;4.10;;;;;;;10.39;100.00;96697.44;5048116;28;20694;-74
2021/05/29 01:13:11;;;;;;;7.53;4.07;;;;;;;10.43;100.00;96689.00;5048356;28;20596;-74
2021/05/29 01:15:40;;;;;;;9.20;4.40;;;;;;;10.34;100.00;96683.94;5048241;28;21008;-74
2021/05/29 01:18:08;;;;;;;6.80;3.90;;;;;;;10.46;100.00;96688.72;5048879;28;20194;-74
2021/05/29 01:20:34;;;;;;;9.30;3.67;;;;;;;10.44;100.00;96684.59;5048701;28;20691;-75
2021/05/29 01:23:01;;;;;;;6.30;3.97;;;;;;;10.43;100.00;96689.00;5048625;28;20588;-75
2021/05/29 01:25:31;;;;;;;6.97;3.77;;;;;;;10.39;100.00;96692.97;5048350;28;20201;-75
2021/05/29 01:28:02;;;;;;;7.97;4.40;;;;;;;10.30;100.00;96698.41;5048242;28;20561;-75
2021/05/29 01:30:30;;;;;;;7.80;4.57;;;;;;;10.26;100.00;96699.72;5040472;28;20205;-75
2021/05/29 01:32:58;;;;;;;5.83;4.43;;;;;;;10.30;100.00;96695.78;5042761;28;20236;-75
2021/05/29 01:35:24;;;;;;;5.40;4.37;;;;;;;10.35;100.00;96690.84;5048406;28;20212;-75
2021/05/29 01:37:53;;;;;;;8.67;4.60;;;;;;;10.37;100.00;96699.41;5048492;28;20207;-75
2021/05/29 01:40:20;;;;;;;7.57;4.70;;;;;;;10.46;100.00;96693.97;5048289;28;20205;-74
2021/05/29 01:42:47;;;;;;;5.60;3.93;;;;;;;10.43;100.00;96688.22;5048137;28;20564;-75
2021/05/29 01:45:13;;;;;;;5.90;3.37;;;;;;;10.39;100.00;96692.16;5047662;28;20197;-75
2021/05/29 01:47:42;;;;;;;6.93;4.20;;;;;;;10.39;100.00;96692.97;5048483;28;20201;-75
2021/05/29 01:50:10;;;;;;;9.27;4.63;;;;;;;10.30;100.00;96703.69;5048352;28;20197;-74
2021/05/29 01:52:50;;;;;;;8.43;4.60;;;;;;;10.30;100.00;96693.16;5048108;28;20691;-74
2021/05/29 01:55:18;;;;;;;7.17;4.17;;;;;;;10.17;100.00;96686.72;5048155;28;20219;-74
2021/05/29 01:57:46;;;;;;;6.60;4.60;;;;;;;10.33;100.00;96692.81;5048143;28;20201;-75
2021/05/29 02:00:13;;;;;;;7.80;4.73;;;;;;;10.35;100.00;96686.38;5048430;28;20201;-75
2021/05/29 02:02:39;;;;;;;6.53;4.53;;;;;;;10.30;100.00;96693.16;5048238;28;20275;-75
2021/05/29 02:05:14;;;;;;;7.77;4.77;;;;;;;10.26;100.00;96689.19;5047972;28;20201;-74
2021/05/29 02:07:40;;;;;;;8.80;5.40;;;;;;;10.40;100.00;96688.53;5048013;28;20200;-75
2021/05/29 02:10:08;;;;;;;6.37;4.67;;;;;;;10.42;100.00;96692.66;5047995;28;20201;-75
2021/05/29 02:12:38;;;;;;;8.47;4.70;;;;;;;10.27;100.00;96685.56;5047676;28;20239;-74
2021/05/29 02:15:10;;;;;;;7.17;4.63;;;;;;;10.29;100.00;96696.75;5047624;28;20217;-74
2021/05/29 02:17:37;;;;;;;8.13;5.00;;;;;;;10.26;100.00;96691.00;5046807;28;20213;-75
2021/05/29 02:20:06;;;;;;;8.87;5.80;;;;;;;10.16;100.00;96685.91;5047947;28;20201;-75
2021/05/29 02:22:32;;;;;;;9.47;6.17;;;;;;;10.08;100.00;96685.06;5048783;28;20232;-75
2021/05/29 02:24:58;;;;;;;9.03;6.37;;;;;;;9.95;100.00;96676.78;5051866;28;20675;-75
2021/05/29 02:27:24;;;;;;;7.93;5.93;;;;;;;10.00;100.00;96680.59;5052258;28;20216;-75
2021/05/29 02:29:50;;;;;;;8.90;6.07;;;;;;;10.17;100.00;96676.19;5051695;28;20675;-75
2021/05/29 02:32:17;;;;;;;10.30;6.13;;;;;;;10.20;100.00;96675.88;5051770;28;20221;-75
2021/05/29 02:34:43;;;;;;;9.40;6.17;;;;;;;10.17;100.00;96682.28;5051853;28;20217;-75
2021/05/29 02:37:09;;;;;;;10.43;6.23;;;;;;;10.20;100.00;96684.56;5051662;28;20208;-75
2021/05/29 02:39:35;;;;;;;9.87;5.90;;;;;;;10.21;100.00;96683.59;5051805;28;20201;-74
2021/05/29 02:42:01;;;;;;;10.13;6.20;;;;;;;10.20;100.00;96683.75;5051464;28;20264;-74
2021/05/29 02:44:27;;;;;;;12.60;6.53;;;;;;;10.24;100.00;96693.78;5051557;28;20193;-74
2021/05/29 02:46:53;;;;;;;9.00;6.00;;;;;;;10.24;100.00;96685.09;5050354;28;20299;-74
2021/05/29 02:49:20;;;;;;;11.10;6.63;;;;;;;10.29;100.00;96685.41;5051513;28;20598;-73
2021/05/29 02:51:46;;;;;;;8.33;6.20;;;;;;;10.20;100.00;96684.56;5051446;28;20233;-74
2021/05/29 02:54:12;;;;;;;12.30;6.07;;;;;;;10.14;100.00;96687.84;5051517;28;20296;-74
2021/05/29 02:56:38;;;;;;;7.83;6.23;;;;;;;10.26;100.00;96689.19;5051027;28;20201;-74
2021/05/29 02:59:05;;;;;;;7.90;5.80;;;;;;;10.27;100.00;96682.91;5051206;28;20271;-74
2021/05/29 03:01:31;;;;;;;7.80;6.00;;;;;;;10.30;100.00;96681.78;5051110;28;20269;-74
2021/05/29 03:03:57;;;;;;;9.83;6.20;;;;;;;10.28;100.00;96681.94;5051500;28;20678;-74
2021/05/29 03:06:24;;;;;;;9.33;6.10;;;;;;;10.30;100.00;96682.63;5050839;28;20233;-74
2021/05/29 03:08:50;;;;;;;8.77;6.30;;;;;;;10.27;100.00;96690.81;5051167;28;20204;-74
2021/05/29 03:11:16;;;;;;;10.00;5.97;;;;;;;10.31;100.00;96707.13;5051129;28;20200;-74
2021/05/29 03:13:42;;;;;;;11.30;6.37;;;;;;;10.29;100.00;96712.56;5050749;28;20237;-74
2021/05/29 03:16:08;;;;;;;6.93;5.33;;;;;;;10.35;100.00;96710.09;5050648;28;20217;-74
2021/05/29 03:18:34;;;;;;;10.83;5.77;;;;;;;10.43;100.00;96709.28;5051133;28;20240;-74
2021/05/29 03:21:00;;;;;;;9.30;5.87;;;;;;;10.36;100.00;96695.94;5051003;28;20586;-74
2021/05/29 03:23:28;;;;;;;6.80;5.60;;;;;;;10.39;100.00;96703.50;5050943;28;20244;-74
2021/05/29 03:25:54;;;;;;;10.57;5.70;;;;;;;10.32;100.00;96712.22;5050481;28;20259;-74
2021/05/29 03:28:20;;;;;;;10.77;5.80;;;;;;;10.33;100.00;96714.72;5050822;28;20201;-74
2021/05/29 03:30:46;;;;;;;8.30;5.20;;;;;;;10.33;100.00;96713.88;5050832;28;20197;-74
2021/05/29 03:33:13;;;;;;;8.43;5.27;;;;;;;10.35;100.00;96722.47;5050510;28;20335;-74
2021/05/29 03:35:39;;;;;;;8.83;5.27;;;;;;;10.36;100.00;96729.34;5049378;28;20202;-74
2021/05/29 03:38:05;;;;;;;9.37;4.93;;;;;;;10.30;100.00;96729.19;5050691;28;20217;-74
2021/05/29 03:40:33;;;;;;;7.53;5.00;;;;;;;10.37;100.00;96736.28;5050614;28;20582;-73
2021/05/29 03:42:59;;;;;;;7.57;5.30;;;;;;;10.38;100.00;96732.66;5050294;28;20217;-74
2021/05/29 03:45:25;;;;;;;7.97;5.20;;;;;;;10.38;100.00;96733.47;5050349;28;20683;-74
2021/05/29 03:47:51;;;;;;;8.63;5.53;;;;;;;10.38;100.00;96743.19;5050449;28;20212;-74
2021/05/29 03:50:23;;;;;;;7.23;5.33;;;;;;;10.35;100.00;96749.63;5050437;28;20198;-74
2021/05/29 03:52:50;;;;;;;8.33;5.23;;;;;;;10.39;100.00;96750.13;5050236;28;20298;-74
2021/05/29 03:55:17;;;;;;;8.23;5.40;;;;;;;10.38;100.00;96745.84;5049899;28;20276;-74
2021/05/29 03:57:45;;;;;;;12.67;5.63;;;;;;;10.41;100.00;96748.13;5050128;28;20762;-74
2021/05/29 04:00:13;;;;;;;7.97;5.60;;;;;;;10.39;100.00;96758.84;5050386;28;20208;-74
2021/05/29 04:02:39;;;;;;;11.30;5.93;;;;;;;10.39;100.00;96750.13;5050168;28;20244;-74
2021/05/29 04:05:07;;;;;;;8.70;5.80;;;;;;;10.41;100.00;96748.13;5050003;28;20632;-74
2021/05/29 04:07:33;;;;;;;9.37;6.13;;;;;;;10.33;100.00;96745.50;5049922;28;20205;-74
2021/05/29 04:09:59;;;;;;;10.23;6.23;;;;;;;10.30;100.00;96739.72;5049807;28;20204;-74
2021/05/29 04:12:25;;;;;;;9.97;6.20;;;;;;;10.28;100.00;96745.16;5050098;28;20236;-73
2021/05/29 04:14:52;;;;;;;8.53;5.90;;;;;;;10.30;100.00;96740.56;5049771;28;20264;-74
2021/05/29 04:17:18;;;;;;;9.30;6.00;;;;;;;10.31;100.00;96750.13;5049782;28;20197;-74
2021/05/29 04:19:44;;;;;;;10.73;6.17;;;;;;;10.38;100.00;96748.47;5049532;28;20208;-74
2021/05/29 04:22:10;;;;;;;10.00;5.90;;;;;;;10.41;100.00;96743.69;5049787;28;20267;-74
2021/05/29 04:24:37;;;;;;;7.70;5.53;;;;;;;10.38;100.00;96744.00;5050111;28;20198;-74
2021/05/29 04:27:04;;;;;;;7.63;5.57;;;;;;;10.38;100.00;96748.47;5049631;28;20197;-74
2021/05/29 04:29:30;;;;;;;8.43;5.67;;;;;;;10.36;100.00;96746.00;5049769;28;20251;-74
2021/05/29 04:31:57;;;;;;;9.97;5.70;;;;;;;10.45;100.00;96754.72;5049369;28;20320;-74
2021/05/29 04:34:23;;;;;;;9.40;5.80;;;;;;;10.52;100.00;96761.81;5049467;28;20711;-74
2021/05/29 04:36:49;;;;;;;8.13;5.80;;;;;;;10.58;100.00;96761.16;5049244;28;20201;-74
2021/05/29 04:39:15;;;;;;;9.23;5.93;;;;;;;10.80;100.00;96759.69;5049257;28;20235;-74
2021/05/29 04:41:41;;;;;;;8.70;5.83;;;;;;;10.81;100.00;96756.06;5049450;28;20255;-74
2021/05/29 04:44:07;;;;;;;7.13;5.63;;;;;;;10.84;100.00;96763.63;5049522;28;20605;-74
2021/05/29 04:46:38;;;;;;;9.87;5.73;;;;;;;10.88;100.00;96762.31;5048831;28;20228;-74
2021/05/29 04:49:05;;;;;;;8.57;5.80;;;;;;;10.87;100.00;96763.28;5049194;28;20205;-74
2021/05/29 04:51:31;;;;;;;8.20;5.13;;;;;;;10.87;100.00;96766.78;5049138;28;20197;-74
2021/05/29 04:53:57;;;;;;;10.03;6.07;;;;;;;10.98;100.00;96769.88;5048982;28;20251;-74
2021/05/29 04:56:23;;;;;;;10.97;5.47;;;;;;;11.13;100.00;96765.56;5048838;28;20216;-74
2021/05/29 04:58:49;;;;;;;11.47;5.50;;;;;;;11.12;100.00;96769.19;5049138;28;20319;-74
2021/05/29 05:01:15;;;;;;;9.73;5.70;;;;;;;11.11;100.00;96769.34;5049152;28;20205;-74
2021/05/29 05:03:41;;;;;;;9.23;5.28;;;;;;;11.19;100.00;96770.19;5048887;28;20221;-74
2021/05/29 05:06:08;;;;;;;7.20;5.83;;;;;;;11.21;100.00;96776.09;5048527;28;20202;-74
2021/05/29 05:08:34;;;;;;;9.07;5.10;;;;;;;11.30;100.00;96769.84;5049119;28;20274;-74
2021/05/29 05:11:00;;;;;;;8.70;5.47;;;;;;;11.52;100.00;96774.44;5048770;28;21170;-74
2021/05/29 05:13:26;;;;;;;9.57;5.23;;;;;;;11.65;100.00;96779.97;5048841;28;20282;-74
2021/05/29 05:15:53;;;;;;;7.10;4.77;;;;;;;11.66;100.00;96773.72;5048511;28;20303;-74
2021/05/29 05:18:20;;;;;;;7.30;4.67;;;;;;;11.73;100.00;96769.38;5048818;28;20208;-74
2021/05/29 05:20:46;;;;;;;7.83;4.77;;;;;;;11.76;100.00;96772.53;5048388;28;20296;-74
2021/05/29 05:23:13;;;;;;;9.17;4.87;;;;;;;11.88;100.00;96771.13;5048770;28;20270;-73
2021/05/29 05:25:39;;;;;;;8.70;5.00;;;;;;;11.90;100.00;96771.81;5048571;28;20237;-73
2021/05/29 05:28:05;;;;;;;8.30;5.30;;;;;;;11.89;100.00;96774.59;5048782;28;20221;-73
2021/05/29 05:30:31;;;;;;;7.80;5.00;;;;;;;11.95;100.00;96776.56;5048619;28;20288;-73
2021/05/29 05:33:00;;;;;;;9.50;4.50;;;;;;;12.03;100.00;96777.34;5048405;28;20218;-73
2021/05/29 05:35:26;;;;;;;7.13;4.77;;;;;;;12.04;100.00;96778.16;5048222;28;20304;-73
2021/05/29 05:37:52;;;;;;;9.30;4.77;;;;;;;12.06;100.00;96781.47;5048627;28;20246;-73
2021/05/29 05:40:19;;;;;;;8.00;4.83;;;;;;;12.04;99.84;96770.22;5048522;28;20258;-73
2021/05/29 05:42:45;;;;;;;6.95;4.57;;;;;;;12.01;100.00;96775.88;5048359;28;20274;-73
2021/05/29 05:45:12;;;;;;;5.93;4.70;;;;;;;12.07;98.05;96780.47;5048038;28;20796;-73
2021/05/29 05:47:38;;;;;;;7.05;4.50;;;;;;;12.27;98.77;96783.31;5048503;28;20208;-73
2021/05/29 05:50:06;;;;;;;5.35;4.30;;;;;;;12.43;97.82;96783.19;5048224;28;20201;-73
2021/05/29 05:52:32;;;;;;;8.93;4.20;;;;;;;12.60;96.94;96779.47;5047889;28;20225;-73
2021/05/29 05:54:58;;;;;;;5.18;3.92;;;;;;;12.73;95.94;96773.56;5048336;28;20270;-73
2021/05/29 05:57:24;;;;;;;6.22;4.30;;;;;;;12.67;93.52;96779.59;5048706;28;20205;-73
2021/05/29 05:59:50;;;;;;;5.22;3.70;;;;;;;12.77;92.80;96781.81;5052526;28;20618;-73
2021/05/29 06:02:16;;;;;;;5.53;3.53;;;;;;;12.92;94.80;96780.06;5052270;28;20267;-73
2021/05/29 06:04:42;;;;;;;5.85;3.95;;;;;;;12.96;92.56;96780.53;5052554;28;20691;-73
2021/05/29 06:07:08;;;;;;;7.00;3.70;;;;;;;13.01;93.40;96776.34;5052213;28;20228;-73
2021/05/29 06:09:34;;;;;;;6.72;3.70;;;;;;;12.97;88.38;96779.50;5052496;28;20244;-73
2021/05/29 06:12:00;;;;;;;7.20;3.97;;;;;;;13.00;89.19;96776.53;5052127;28;20221;-73
2021/05/29 06:19:56;;;;;;;4.20;3.20;;;;;;;13.08;89.27;96777.25;5052039;28;20755;-73
2021/05/29 06:22:22;;;;;;;4.65;3.47;;;;;;;13.13;91.19;96782.03;5051740;28;20273;-73
2021/05/29 06:24:48;;;;;;;5.45;3.78;;;;;;;13.11;88.96;96784.03;5052005;28;20205;-73
2021/05/29 06:27:14;;;;;;;7.45;4.18;;;;;;;13.13;93.39;96789.97;5051740;28;20201;-73
2021/05/29 06:29:41;;;;;;;4.63;3.42;;;;;;;13.21;87.06;96789.91;5051829;28;20608;-73
2021/05/29 06:32:08;;;;;;;5.95;3.88;;;;;;;13.15;92.00;96801.19;5051933;28;20255;-73
2021/05/29 06:34:34;;;;;;;6.25;3.80;;;;;;;13.23;92.23;96798.50;5051702;28;20664;-73
2021/05/29 06:37:00;;;;;;;6.03;4.15;;;;;;;13.40;91.64;96798.13;5051678;28;20202;-73
2021/05/29 06:39:26;;;;;;;5.80;3.65;;;;;;;13.16;92.51;96801.03;5051620;28;20251;-73
2021/05/29 06:41:52;;;;;;;5.95;3.70;;;;;;;13.16;88.57;96805.47;5051454;28;20268;-73
2021/05/29 06:44:18;;;;;;;5.43;3.45;;;;;;;13.26;88.00;96811.34;5051617;28;21161;-73
2021/05/29 06:46:45;;;;;;;4.93;3.80;;;;;;;13.47;94.75;96813.13;5051214;28;20244;-73
2021/05/29 06:49:11;;;;;;;5.18;3.42;;;;;;;13.54;86.92;96814.06;5051680;28;20193;-73
2021/05/29 06:51:42;;;;;;;5.60;3.67;;;;;;;13.63;85.25;96812.97;5051354;28;20205;-73
2021/05/29 06:54:13;;;;;;;7.55;3.85;;;;;;;13.88;88.80;96822.28;5051530;28;20217;-73
2021/05/29 06:59:23;;;;;;;5.60;3.40;;;;;;;14.17;85.07;96817.00;5051586;28;20227;-73
2021/05/29 07:01:50;;;;;;;5.40;3.33;;;;;;;14.16;82.70;96825.97;5051344;28;20705;-73
2021/05/29 07:04:16;;;;;;;3.83;3.05;;;;;;;14.04;85.49;96824.75;5051008;28;20599;-74
2021/05/29 07:06:42;;;;;;;7.20;3.92;;;;;;;14.08;84.09;96821.56;5050847;28;20205;-73
2021/05/29 07:09:08;;;;;;;6.45;3.72;;;;;;;13.90;85.34;96827.38;5050760;28;20247;-73
2021/05/29 07:11:37;;;;;;;5.00;3.47;;;;;;;13.82;84.18;96820.34;5050075;28;20300;-73
2021/05/29 07:14:05;;;;;;;6.93;3.70;;;;;;;13.82;85.23;96828.31;5050257;28;20623;-73
2021/05/29 07:16:31;;;;;;;9.23;4.10;;;;;;;13.84;87.91;96826.31;5050908;28;20267;-73
2021/05/29 07:18:57;;;;;;;4.93;3.70;;;;;;;13.92;88.91;96823.56;5051109;28;20194;-73
2021/05/29 07:21:23;;;;;;;7.15;3.88;;;;;;;14.08;82.79;96818.91;5050837;28;20250;-72
2021/05/29 07:23:49;;;;;;;6.30;3.38;;;;;;;14.13;85.98;96823.69;5050445;28;20224;-73
2021/05/29 07:26:15;;;;;;;5.55;3.85;;;;;;;14.35;88.02;96822.72;5050526;28;20201;-73
2021/05/29 07:28:41;;;;;;;6.68;3.45;;;;;;;14.48;82.30;96820.22;5050902;28;20251;-73
2021/05/29 07:31:07;;;;;;;5.40;3.38;;;;;;;14.43;80.63;96828.72;5050835;28;20201;-73
2021/05/29 07:33:34;;;;;;;6.60;3.67;;;;;;;14.34;82.41;96823.72;5050622;28;20225;-72
2021/05/29 07:36:00;;;;;;;5.90;4.05;;;;;;;14.60;82.64;96818.72;5050345;28;21227;-72
2021/05/29 07:38:27;;;;;;;5.10;3.20;;;;;;;14.57;80.20;96821.75;5050887;28;20358;-73
2021/05/29 07:40:53;;;;;;;6.70;3.25;;;;;;;14.58;75.45;96826.88;5050695;28;20205;-73
2021/05/29 07:43:19;;;;;;;3.72;2.72;;;;;;;14.71;77.24;96819.91;5050654;28;20209;-73
2021/05/29 07:45:46;;;;;;;4.03;2.90;;;;;;;14.81;76.21;96817.72;5050220;28;20205;-73
2021/05/29 07:48:12;;;;;;;2.55;2.25;;;;;;;15.10;78.55;96817.63;5050149;28;21097;-73
2021/05/29 07:50:57;;;;;;;5.43;2.88;;;;;;;15.10;77.64;96817.63;5050360;28;20306;-73
2021/05/29 07:53:25;;;;;;;4.22;2.80;;;;;;;15.29;77.67;96814.34;5050472;28;20229;-73
2021/05/29 07:55:51;;;;;;;5.18;2.72;;;;;;;15.35;74.47;96816.22;5049780;28;21129;-73
2021/05/29 07:58:17;;;;;;;4.22;1.95;;;;;;;15.51;70.94;96814.09;5050388;28;20197;-73
2021/05/29 08:00:45;;;;;;;5.57;2.40;;;;;;;15.69;71.50;96821.59;5050333;28;20259;-73
2021/05/29 08:03:11;;;;;;;5.50;2.35;;;;;;;15.61;71.48;96811.13;5050092;28;20267;-73
2021/05/29 08:05:37;;;;;;;5.75;2.65;;;;;;;15.72;71.28;96813.22;5049972;28;20205;-73
2021/05/29 08:08:04;;;;;;;2.58;2.38;;;;;;;15.44;67.55;96809.75;5050322;28;20659;-73
2021/05/29 08:10:30;;;;;;;4.95;2.13;;;;;;;15.33;66.31;96811.09;5049981;28;20201;-73
2021/05/29 08:12:56;;;;;;;4.20;1.98;;;;;;;15.64;70.53;96808.06;5049999;28;20232;-73
2021/05/29 08:15:22;;;;;;;6.03;2.00;;;;;;;15.68;66.80;96807.50;5049475;28;20221;-73
2021/05/29 08:17:48;;;;;;;2.97;1.85;;;;;;;15.60;63.21;96812.13;5049698;28;20215;-73
2021/05/29 08:20:15;;;;;;;3.25;2.05;;;;;;;15.56;63.17;96802.91;5049509;28;20573;-73
2021/05/29 08:22:41;;;;;;;2.10;1.60;;;;;;;15.47;64.15;96798.75;5049840;28;20659;-73
2021/05/29 08:25:08;;;;;;;2.45;1.73;;;;;;;15.53;67.01;96803.28;5049584;28;20201;-73
2021/05/29 08:27:35;;;;;;;4.70;2.10;;;;;;;15.80;61.21;96805.13;5049470;28;20678;-73
2021/05/29 08:30:02;;;;;;;2.90;2.17;;;;;;;15.77;62.25;96801.03;5049543;28;20197;-73
2021/05/29 08:32:28;;;;;;;6.50;2.10;;;;;;;16.19;64.92;96812.28;5049489;28;20229;-73
2021/05/29 08:34:54;;;;;;;2.97;2.10;;;;;;;16.36;60.01;96818.94;5049578;28;20375;-73
2021/05/29 08:37:20;;;;;;;2.08;1.77;;;;;;;16.49;58.74;96813.66;5049377;28;20284;-73
2021/05/29 08:39:46;;;;;;;5.30;2.22;;;;;;;16.60;59.96;96815.75;5049531;28;20311;-73
2021/05/29 08:42:12;;;;;;;3.03;2.20;;;;;;;16.48;58.32;96812.03;5049562;28;20217;-73
2021/05/29 08:44:39;;;;;;;3.08;2.08;;;;;;;16.43;64.31;96813.66;5048420;28;20209;-73
2021/05/29 08:47:05;;;;;;;5.75;2.10;;;;;;;16.05;61.38;96815.06;5048635;28;20693;-73
2021/05/29 08:49:31;;;;;;;3.75;2.38;;;;;;;16.48;61.51;96821.84;5049174;28;20300;-73
2021/05/29 08:52:00;;;;;;;3.38;2.10;;;;;;;16.65;57.18;96813.31;5049076;28;20217;-73
2021/05/29 08:54:28;;;;;;;3.20;2.00;;;;;;;16.76;57.85;96818.06;5048714;28;20220;-73
2021/05/29 08:56:54;;;;;;;2.47;1.58;;;;;;;16.92;59.53;96820.34;5048433;28;20219;-73
2021/05/29 08:59:20;;;;;;;2.28;1.80;;;;;;;17.32;59.04;96814.88;5049099;28;20296;-73
2021/05/29 09:01:47;;;;;;;2.72;2.00;;;;;;;17.38;60.08;96812.22;5048745;28;20229;-73
2021/05/29 09:04:13;;;;;;;4.45;1.90;;;;;;;17.34;53.51;96816.31;5049096;28;20207;-73
2021/05/29 09:06:41;;;;;;;3.50;1.95;;;;;;;17.40;56.96;96815.53;5048604;28;20251;-72
2021/05/29 09:09:09;;;;;;;3.92;1.92;;;;;;;17.47;54.27;96816.31;5049031;28;20193;-73
2021/05/29 09:11:40;;;;;;;3.55;1.90;;;;;;;17.45;59.05;96813.06;5048481;28;20659;-73
2021/05/29 09:14:28;;;;;;;3.58;1.45;;;;;;;17.70;51.93;96815.91;5048120;28;20221;-73
2021/05/29 09:17:04;;;;;;;4.30;1.50;;;;;;;17.82;57.58;96809.75;5048077;28;20287;-73
2021/05/29 09:19:49;;;;;;;2.70;1.40;;;;;;;17.89;56.28;96802.56;5048500;28;20238;-73
2021/05/29 09:22:16;;;;;;;2.30;1.45;;;;;;;18.07;54.03;96813.38;5048164;28;20635;-73
2021/05/29 09:24:42;;;;;;;1.60;1.40;;;;;;;17.93;53.29;96817.91;5047998;28;20627;-73
2021/05/29 09:27:09;;;;;;;2.90;1.50;;;;;;;18.05;55.85;96818.09;5048445;28;20590;-73
2021/05/29 09:29:35;;;;;;;1.90;1.52;;;;;;;17.65;53.62;96816.53;5048694;28;20749;-73
2021/05/29 09:32:04;;;;;;;5.85;1.80;;;;;;;18.07;58.90;96814.19;5047507;28;20347;-73
2021/05/29 09:34:38;;;;;;;2.33;1.75;;;;;;;18.05;57.74;96810.94;5048391;28;20221;-73
2021/05/29 09:37:10;;;;;;;3.47;1.60;;;;;;;18.07;54.25;96819.53;5047577;28;20633;-73
2021/05/29 09:39:37;;;;;;;3.20;1.55;;;;;;;18.05;56.29;96824.25;5048335;28;20228;-73
2021/05/29 09:42:04;;;;;;;3.33;1.67;;;;;;;18.09;52.06;96822.00;5048619;28;20221;-73
2021/05/29 09:44:31;;;;;;;3.10;1.55;;;;;;;18.16;52.19;96820.94;5048479;28;20204;-73
2021/05/29 09:46:59;;;;;;;2.03;1.60;;;;;;;17.87;51.82;96828.59;5048138;28;20197;-73
2021/05/29 09:49:41;;;;;;;1.90;1.50;;;;;;;17.91;55.31;96830.66;5048438;28;20290;-73
2021/05/29 09:52:26;;;;;;;3.92;1.63;;;;;;;17.82;53.08;96825.75;5048204;28;20371;-73
2021/05/29 09:54:53;;;;;;;3.63;1.60;;;;;;;17.50;53.47;96821.28;5047938;28;20224;-74
2021/05/29 09:57:19;;;;;;;4.28;1.70;;;;;;;17.64;58.83;96819.41;5048126;28;20200;-73
2021/05/29 09:59:59;;;;;;;2.85;1.92;;;;;;;17.80;61.08;96819.78;5048138;28;20254;-73
2021/05/29 10:02:25;;;;;;;2.60;1.65;;;;;;;18.30;51.86;96822.56;5048528;28;20224;-73
2021/05/29 10:04:54;;;;;;;3.25;1.77;;;;;;;18.51;50.18;96815.09;5048384;28;20233;-73
2021/05/29 10:07:21;;;;;;;6.88;2.78;;;;;;;18.22;51.22;96811.31;5047992;28;20675;-73
2021/05/29 10:09:47;;;;;;;3.28;1.70;;;;;;;18.33;51.81;96810.66;5048118;28;20208;-73
2021/05/29 10:12:14;;;;;;;3.55;2.10;;;;;;;18.62;51.22;96817.13;5048178;28;20213;-74
2021/05/29 10:14:41;;;;;;;1.98;1.70;;;;;;;18.66;54.17;96818.34;5047847;28;20253;-73
2021/05/29 10:17:09;;;;;;;4.47;1.80;;;;;;;19.07;52.10;96813.41;5047989;28;20626;-73
2021/05/29 10:19:36;;;;;;;3.63;1.90;;;;;;;19.11;52.36;96809.28;5048245;28;20207;-74
2021/05/29 10:22:08;;;;;;;2.50;1.80;;;;;;;19.28;51.35;96815.72;5047911;28;20270;-73
2021/05/29 10:24:37;;;;;;;5.13;1.65;;;;;;;18.74;52.79;96811.94;5048195;28;20201;-73
2021/05/29 10:27:06;;;;;;;6.15;2.05;;;;;;;17.97;54.43;96818.31;5047600;28;20205;-73
2021/05/29 10:29:33;;;;;;;3.83;2.08;;;;;;;17.67;53.87;96814.47;5048196;28;20205;-73
2021/05/29 10:32:17;;;;;;;4.63;2.08;;;;;;;17.52;55.40;96810.41;5047999;28;20217;-73
2021/05/29 10:34:57;;;;;;;2.85;1.88;;;;;;;17.38;52.91;96806.09;5047639;28;20694;-73
2021/05/29 10:37:33;;;;;;;2.80;1.80;;;;;;;17.97;54.87;96815.66;5047703;28;20240;-73
2021/05/29 10:40:15;;;;;;;2.28;1.70;;;;;;;18.88;49.49;96808.97;5047824;28;20197;-73
2021/05/29 10:42:41;;;;;;;3.60;1.60;;;;;;;19.00;50.44;96807.25;5047675;28;20221;-73
2021/05/29 10:45:15;;;;;;;2.65;1.58;;;;;;;19.55;50.20;96803.78;5050955;28;20191;-73
2021/05/29 10:48:06;;;;;;;2.03;1.30;;;;;;;19.48;50.05;96808.38;5051485;28;20211;-73
2021/05/29 10:51:06;;;;;;;2.25;1.55;;;;;;;19.36;46.32;96807.44;5051623;28;20240;-73
2021/05/29 10:53:52;;;;;;;2.47;1.42;;;;;;;18.75;50.04;96814.38;5050961;28;20307;-73
2021/05/29 10:56:29;;;;;;;4.13;1.40;;;;;;;18.33;53.69;96804.31;5050514;28;20287;-73
2021/05/29 10:59:08;;;;;;;2.88;1.40;;;;;;;17.76;53.17;96800.72;5051410;28;20345;-73
2021/05/29 11:02:08;;;;;;;2.70;1.80;;;;;;;17.94;54.36;96805.41;5051074;28;20209;-73
2021/05/29 11:04:34;;;;;;;3.22;1.77;;;;;;;17.78;52.09;96808.50;5051142;28;20200;-73
2021/05/29 11:07:24;;;;;;;3.33;1.70;;;;;;;17.55;55.08;96812.63;5051174;28;20208;-73
2021/05/29 11:09:54;;;;;;;2.13;1.50;;;;;;;17.53;51.74;96804.84;5041837;28;20219;-73
2021/05/29 11:12:20;;;;;;;3.03;1.50;;;;;;;17.42;49.06;96812.66;5050808;28;20613;-73
2021/05/29 11:14:52;;;;;;;1.58;1.40;;;;;;;18.36;49.32;96798.53;5050675;28;20224;-73
2021/05/29 11:17:19;;;;;;;3.83;1.73;;;;;;;18.74;47.51;96802.06;5051018;28;20204;-73
2021/05/29 11:20:10;;;;;;;2.25;1.70;;;;;;;19.14;45.63;96798.16;5050830;28;20209;-73
2021/05/29 11:22:44;;;;;;;2.90;1.60;;;;;;;19.45;46.84;96795.44;5050870;28;20225;-73
2021/05/29 11:25:16;;;;;;;2.20;1.33;;;;;;;20.18;49.24;96793.53;5049231;28;20200;-73
2021/05/29 11:27:44;;;;;;;2.42;1.38;;;;;;;20.14;48.68;96792.34;5050891;28;20209;-73
2021/05/29 11:30:13;;;;;;;2.25;1.20;;;;;;;19.00;49.61;96796.56;5050560;28;20288;-73
2021/05/29 11:32:43;;;;;;;2.97;1.38;;;;;;;18.87;47.94;96801.97;5050805;28;20236;-73
2021/05/29 11:35:28;;;;;;;2.35;1.20;;;;;;;18.85;50.90;96795.22;5050457;28;20232;-73
2021/05/29 11:38:07;;;;;;;1.40;1.10;;;;;;;18.24;48.29;96796.75;5050525;28;20208;-73
2021/05/29 11:41:00;;;;;;;2.10;1.20;;;;;;;18.28;48.71;96795.28;5050978;28;20232;-74
2021/05/29 11:43:35;;;;;;;1.88;1.40;;;;;;;17.85;49.23;96798.66;5050591;28;20225;-73